Forest Park, Illinois
Current Conditions -  °F | °C
As of 7:53 AM on Monday 20 Oct 2014 (Local Time) from KMDW Reporting Station
Few Clouds Few Clouds  
Wind Chill: 51°   Ceiling: Unl
Heat Index: 51°   Visibility: 10mi
Dew Point: 46°   Wind: 6mph
Humidity: 83%   Direction: 260°W
Pressure: 29.82"   Gusts: NA
Location:  41.88°N, 87.81°W
Report Text: KMDW 201253Z 26005KT 10SM FEW070 11/08 A2982 RMK AO2 SLP100 T01060078
Loading
Personal Weather Stations






























Interactive Weather Map
Tropical Storm Tracking
New forecast layout! Learn more

10-Day Weather Forecast

Advertisements
Track Severe Weather on mobile